sensor_id;sensor_type;location;lat;lon;timestamp;P1;durP1;ratioP1;P2;durP2;ratioP2
19016;SDS011;9641;51.494;6.670;2022-08-19T00:01:14;6.33;;;4.93;;
19016;SDS011;9641;51.494;6.670;2022-08-19T00:03:41;6.73;;;4.40;;
19016;SDS011;9641;51.494;6.670;2022-08-19T00:06:08;7.60;;;5.40;;
19016;SDS011;9641;51.494;6.670;2022-08-19T00:08:36;5.53;;;4.67;;
19016;SDS011;9641;51.494;6.670;2022-08-19T00:11:03;5.70;;;5.10;;
19016;SDS011;9641;51.494;6.670;2022-08-19T00:13:31;8.77;;;5.80;;
19016;SDS011;9641;51.494;6.670;2022-08-19T00:15:57;8.50;;;5.37;;
19016;SDS011;9641;51.494;6.670;2022-08-19T00:18:25;7.33;;;5.17;;
19016;SDS011;9641;51.494;6.670;2022-08-19T00:20:52;5.93;;;5.30;;
19016;SDS011;9641;51.494;6.670;2022-08-19T00:23:19;5.57;;;5.07;;
19016;SDS011;9641;51.494;6.670;2022-08-19T00:25:48;7.03;;;5.90;;
19016;SDS011;9641;51.494;6.670;2022-08-19T00:28:15;6.90;;;5.97;;
19016;SDS011;9641;51.494;6.670;2022-08-19T00:30:42;7.87;;;5.70;;
19016;SDS011;9641;51.494;6.670;2022-08-19T00:33:09;6.87;;;6.17;;
19016;SDS011;9641;51.494;6.670;2022-08-19T00:35:36;7.27;;;5.87;;
19016;SDS011;9641;51.494;6.670;2022-08-19T00:38:03;8.67;;;6.47;;
19016;SDS011;9641;51.494;6.670;2022-08-19T00:40:31;6.77;;;5.53;;
19016;SDS011;9641;51.494;6.670;2022-08-19T00:43:00;8.13;;;6.17;;
19016;SDS011;9641;51.494;6.670;2022-08-19T00:45:28;6.10;;;5.50;;
19016;SDS011;9641;51.494;6.670;2022-08-19T00:47:57;7.87;;;6.30;;
19016;SDS011;9641;51.494;6.670;2022-08-19T00:50:28;6.93;;;5.60;;
19016;SDS011;9641;51.494;6.670;2022-08-19T00:52:56;7.20;;;5.93;;
19016;SDS011;9641;51.494;6.670;2022-08-19T00:55:25;7.30;;;5.77;;
19016;SDS011;9641;51.494;6.670;2022-08-19T00:57:55;7.53;;;5.87;;
19016;SDS011;9641;51.494;6.670;2022-08-19T01:00:26;9.03;;;6.50;;
19016;SDS011;9641;51.494;6.670;2022-08-19T01:02:54;7.90;;;6.50;;
19016;SDS011;9641;51.494;6.670;2022-08-19T01:05:22;7.43;;;6.07;;
19016;SDS011;9641;51.494;6.670;2022-08-19T01:07:52;8.77;;;6.73;;
19016;SDS011;9641;51.494;6.670;2022-08-19T01:10:20;8.50;;;6.57;;
19016;SDS011;9641;51.494;6.670;2022-08-19T01:12:50;9.63;;;7.20;;
19016;SDS011;9641;51.494;6.670;2022-08-19T01:15:20;8.13;;;6.87;;
19016;SDS011;9641;51.494;6.670;2022-08-19T01:17:52;13.50;;;7.30;;
19016;SDS011;9641;51.494;6.670;2022-08-19T01:20:20;9.07;;;7.33;;
19016;SDS011;9641;51.494;6.670;2022-08-19T01:22:50;11.60;;;7.57;;
19016;SDS011;9641;51.494;6.670;2022-08-19T01:25:20;9.07;;;6.73;;
19016;SDS011;9641;51.494;6.670;2022-08-19T01:27:51;8.23;;;6.87;;
19016;SDS011;9641;51.494;6.670;2022-08-19T01:30:19;7.57;;;6.77;;
19016;SDS011;9641;51.494;6.670;2022-08-19T01:32:49;10.53;;;7.30;;
19016;SDS011;9641;51.494;6.670;2022-08-19T01:35:17;11.13;;;6.90;;
19016;SDS011;9641;51.494;6.670;2022-08-19T01:37:45;12.27;;;7.73;;
19016;SDS011;9641;51.494;6.670;2022-08-19T01:40:16;9.63;;;7.27;;
19016;SDS011;9641;51.494;6.670;2022-08-19T01:42:44;9.40;;;7.70;;
19016;SDS011;9641;51.494;6.670;2022-08-19T01:45:11;8.20;;;6.50;;
19016;SDS011;9641;51.494;6.670;2022-08-19T01:47:38;10.73;;;7.47;;
19016;SDS011;9641;51.494;6.670;2022-08-19T01:50:06;9.50;;;7.30;;
19016;SDS011;9641;51.494;6.670;2022-08-19T01:52:35;9.97;;;8.23;;
19016;SDS011;9641;51.494;6.670;2022-08-19T01:55:03;10.47;;;7.63;;
19016;SDS011;9641;51.494;6.670;2022-08-19T01:57:32;10.37;;;7.63;;
19016;SDS011;9641;51.494;6.670;2022-08-19T02:00:00;10.70;;;7.77;;
19016;SDS011;9641;51.494;6.670;2022-08-19T02:02:36;8.27;;;7.23;;
19016;SDS011;9641;51.494;6.670;2022-08-19T02:05:04;7.77;;;6.90;;
19016;SDS011;9641;51.494;6.670;2022-08-19T02:07:33;13.43;;;7.67;;
19016;SDS011;9641;51.494;6.670;2022-08-19T02:10:01;9.77;;;6.90;;
19016;SDS011;9641;51.494;6.670;2022-08-19T02:12:29;9.83;;;6.97;;
19016;SDS011;9641;51.494;6.670;2022-08-19T02:14:57;8.77;;;7.00;;
19016;SDS011;9641;51.494;6.670;2022-08-19T02:17:26;8.40;;;6.83;;
19016;SDS011;9641;51.494;6.670;2022-08-19T02:19:54;12.33;;;6.90;;
19016;SDS011;9641;51.494;6.670;2022-08-19T02:22:21;9.63;;;6.67;;
19016;SDS011;9641;51.494;6.670;2022-08-19T02:24:49;12.10;;;7.50;;
19016;SDS011;9641;51.494;6.670;2022-08-19T02:27:16;8.90;;;7.03;;
19016;SDS011;9641;51.494;6.670;2022-08-19T02:29:42;9.37;;;6.70;;
19016;SDS011;9641;51.494;6.670;2022-08-19T02:32:12;10.40;;;8.37;;
19016;SDS011;9641;51.494;6.670;2022-08-19T02:34:39;9.17;;;7.53;;
19016;SDS011;9641;51.494;6.670;2022-08-19T02:37:06;10.43;;;7.87;;
19016;SDS011;9641;51.494;6.670;2022-08-19T02:39:54;9.07;;;7.00;;
19016;SDS011;9641;51.494;6.670;2022-08-19T02:42:20;10.23;;;7.23;;
19016;SDS011;9641;51.494;6.670;2022-08-19T02:44:47;8.50;;;6.93;;
19016;SDS011;9641;51.494;6.670;2022-08-19T02:47:15;9.00;;;7.40;;
19016;SDS011;9641;51.494;6.670;2022-08-19T02:49:43;9.63;;;7.47;;
19016;SDS011;9641;51.494;6.670;2022-08-19T02:52:10;9.23;;;7.40;;
19016;SDS011;9641;51.494;6.670;2022-08-19T02:54:37;9.63;;;7.93;;
19016;SDS011;9641;51.494;6.670;2022-08-19T02:57:04;10.50;;;7.93;;
19016;SDS011;9641;51.494;6.670;2022-08-19T02:59:31;11.33;;;8.30;;
19016;SDS011;9641;51.494;6.670;2022-08-19T03:01:59;10.53;;;8.57;;
19016;SDS011;9641;51.494;6.670;2022-08-19T03:04:27;11.23;;;8.20;;
19016;SDS011;9641;51.494;6.670;2022-08-19T03:06:54;9.27;;;8.03;;
19016;SDS011;9641;51.494;6.670;2022-08-19T03:09:22;11.53;;;8.27;;
19016;SDS011;9641;51.494;6.670;2022-08-19T03:11:48;12.20;;;8.80;;
19016;SDS011;9641;51.494;6.670;2022-08-19T03:14:16;15.07;;;9.63;;
19016;SDS011;9641;51.494;6.670;2022-08-19T03:16:44;13.73;;;9.70;;
19016;SDS011;9641;51.494;6.670;2022-08-19T03:19:12;14.53;;;9.63;;
19016;SDS011;9641;51.494;6.670;2022-08-19T03:21:42;11.13;;;8.63;;
19016;SDS011;9641;51.494;6.670;2022-08-19T03:24:10;12.27;;;9.33;;
19016;SDS011;9641;51.494;6.670;2022-08-19T03:26:38;15.13;;;10.47;;
19016;SDS011;9641;51.494;6.670;2022-08-19T03:29:06;17.87;;;10.97;;
19016;SDS011;9641;51.494;6.670;2022-08-19T03:31:34;18.17;;;12.77;;
19016;SDS011;9641;51.494;6.670;2022-08-19T03:34:01;17.30;;;11.93;;
19016;SDS011;9641;51.494;6.670;2022-08-19T03:36:28;18.27;;;12.70;;
19016;SDS011;9641;51.494;6.670;2022-08-19T03:38:57;20.20;;;12.73;;
19016;SDS011;9641;51.494;6.670;2022-08-19T03:41:27;17.40;;;12.83;;
19016;SDS011;9641;51.494;6.670;2022-08-19T03:43:56;22.03;;;13.73;;
19016;SDS011;9641;51.494;6.670;2022-08-19T03:46:25;20.47;;;14.27;;
19016;SDS011;9641;51.494;6.670;2022-08-19T03:48:54;20.63;;;14.00;;
19016;SDS011;9641;51.494;6.670;2022-08-19T03:51:23;25.03;;;16.50;;
19016;SDS011;9641;51.494;6.670;2022-08-19T03:53:51;26.13;;;17.50;;
19016;SDS011;9641;51.494;6.670;2022-08-19T03:56:21;25.43;;;16.37;;
19016;SDS011;9641;51.494;6.670;2022-08-19T03:58:50;26.37;;;17.13;;
19016;SDS011;9641;51.494;6.670;2022-08-19T04:01:18;27.50;;;16.87;;
19016;SDS011;9641;51.494;6.670;2022-08-19T04:03:46;26.37;;;16.43;;
19016;SDS011;9641;51.494;6.670;2022-08-19T04:06:15;23.57;;;15.17;;
19016;SDS011;9641;51.494;6.670;2022-08-19T04:08:45;22.90;;;15.13;;
19016;SDS011;9641;51.494;6.670;2022-08-19T04:11:13;19.47;;;13.27;;
19016;SDS011;9641;51.494;6.670;2022-08-19T04:13:43;26.47;;;17.30;;
19016;SDS011;9641;51.494;6.670;2022-08-19T04:16:10;28.80;;;17.50;;
19016;SDS011;9641;51.494;6.670;2022-08-19T04:18:37;27.37;;;17.30;;
19016;SDS011;9641;51.494;6.670;2022-08-19T04:21:06;34.13;;;19.57;;
19016;SDS011;9641;51.494;6.670;2022-08-19T04:23:34;28.90;;;18.27;;
19016;SDS011;9641;51.494;6.670;2022-08-19T04:26:02;29.77;;;18.10;;
19016;SDS011;9641;51.494;6.670;2022-08-19T04:28:29;30.93;;;18.80;;
19016;SDS011;9641;51.494;6.670;2022-08-19T04:30:57;28.07;;;16.97;;
19016;SDS011;9641;51.494;6.670;2022-08-19T04:33:24;28.77;;;18.03;;
19016;SDS011;9641;51.494;6.670;2022-08-19T04:35:52;29.83;;;19.23;;
19016;SDS011;9641;51.494;6.670;2022-08-19T04:38:20;28.03;;;18.27;;
19016;SDS011;9641;51.494;6.670;2022-08-19T04:40:49;28.97;;;16.77;;
19016;SDS011;9641;51.494;6.670;2022-08-19T04:43:37;25.17;;;16.50;;
19016;SDS011;9641;51.494;6.670;2022-08-19T04:46:07;27.07;;;16.67;;
19016;SDS011;9641;51.494;6.670;2022-08-19T04:48:35;29.80;;;19.33;;
19016;SDS011;9641;51.494;6.670;2022-08-19T04:51:05;31.67;;;19.97;;
19016;SDS011;9641;51.494;6.670;2022-08-19T04:53:36;30.07;;;19.13;;
19016;SDS011;9641;51.494;6.670;2022-08-19T04:56:06;32.70;;;19.70;;
19016;SDS011;9641;51.494;6.670;2022-08-19T04:58:34;27.57;;;18.07;;
19016;SDS011;9641;51.494;6.670;2022-08-19T05:01:03;29.03;;;18.97;;
19016;SDS011;9641;51.494;6.670;2022-08-19T05:03:31;24.60;;;16.77;;
19016;SDS011;9641;51.494;6.670;2022-08-19T05:06:03;23.57;;;16.53;;
19016;SDS011;9641;51.494;6.670;2022-08-19T05:08:32;25.60;;;16.70;;
19016;SDS011;9641;51.494;6.670;2022-08-19T05:11:01;28.53;;;16.63;;
19016;SDS011;9641;51.494;6.670;2022-08-19T05:13:33;26.17;;;16.80;;
19016;SDS011;9641;51.494;6.670;2022-08-19T05:16:00;26.37;;;16.23;;
19016;SDS011;9641;51.494;6.670;2022-08-19T05:18:27;24.57;;;16.60;;
19016;SDS011;9641;51.494;6.670;2022-08-19T05:21:14;25.93;;;16.63;;
19016;SDS011;9641;51.494;6.670;2022-08-19T05:24:00;23.27;;;16.87;;
19016;SDS011;9641;51.494;6.670;2022-08-19T05:26:27;23.30;;;15.93;;
19016;SDS011;9641;51.494;6.670;2022-08-19T05:28:55;24.60;;;16.57;;
19016;SDS011;9641;51.494;6.670;2022-08-19T05:31:22;26.73;;;17.27;;
19016;SDS011;9641;51.494;6.670;2022-08-19T05:33:48;23.63;;;15.70;;
19016;SDS011;9641;51.494;6.670;2022-08-19T05:36:17;23.77;;;15.90;;
19016;SDS011;9641;51.494;6.670;2022-08-19T05:38:44;26.07;;;17.93;;
19016;SDS011;9641;51.494;6.670;2022-08-19T05:41:13;28.63;;;19.47;;
19016;SDS011;9641;51.494;6.670;2022-08-19T05:43:41;27.77;;;18.27;;
19016;SDS011;9641;51.494;6.670;2022-08-19T05:46:08;31.37;;;18.57;;
19016;SDS011;9641;51.494;6.670;2022-08-19T05:48:43;31.77;;;20.03;;
19016;SDS011;9641;51.494;6.670;2022-08-19T05:51:10;34.03;;;21.07;;
19016;SDS011;9641;51.494;6.670;2022-08-19T05:53:38;34.47;;;21.37;;
19016;SDS011;9641;51.494;6.670;2022-08-19T05:56:05;41.70;;;23.47;;
19016;SDS011;9641;51.494;6.670;2022-08-19T05:58:33;40.40;;;23.97;;
19016;SDS011;9641;51.494;6.670;2022-08-19T06:01:00;35.67;;;23.67;;
19016;SDS011;9641;51.494;6.670;2022-08-19T06:03:30;32.23;;;21.17;;
19016;SDS011;9641;51.494;6.670;2022-08-19T06:05:57;35.70;;;24.20;;
19016;SDS011;9641;51.494;6.670;2022-08-19T06:08:25;35.10;;;23.47;;
19016;SDS011;9641;51.494;6.670;2022-08-19T06:10:54;35.70;;;22.97;;
19016;SDS011;9641;51.494;6.670;2022-08-19T06:13:21;33.40;;;22.60;;
19016;SDS011;9641;51.494;6.670;2022-08-19T06:15:49;36.63;;;23.07;;
19016;SDS011;9641;51.494;6.670;2022-08-19T06:18:16;35.93;;;24.57;;
19016;SDS011;9641;51.494;6.670;2022-08-19T06:20:44;34.77;;;22.93;;
19016;SDS011;9641;51.494;6.670;2022-08-19T06:23:11;33.03;;;22.23;;
19016;SDS011;9641;51.494;6.670;2022-08-19T06:25:38;40.07;;;26.07;;
19016;SDS011;9641;51.494;6.670;2022-08-19T06:28:07;36.60;;;23.70;;
19016;SDS011;9641;51.494;6.670;2022-08-19T06:30:35;43.30;;;26.23;;
19016;SDS011;9641;51.494;6.670;2022-08-19T06:33:02;44.50;;;26.40;;
19016;SDS011;9641;51.494;6.670;2022-08-19T06:35:28;40.00;;;26.07;;
19016;SDS011;9641;51.494;6.670;2022-08-19T06:37:55;47.87;;;28.60;;
19016;SDS011;9641;51.494;6.670;2022-08-19T06:40:22;39.00;;;26.27;;
19016;SDS011;9641;51.494;6.670;2022-08-19T06:42:50;44.30;;;28.93;;
19016;SDS011;9641;51.494;6.670;2022-08-19T06:45:19;44.90;;;30.23;;
19016;SDS011;9641;51.494;6.670;2022-08-19T06:47:46;49.73;;;31.63;;
19016;SDS011;9641;51.494;6.670;2022-08-19T06:50:13;47.93;;;29.50;;
19016;SDS011;9641;51.494;6.670;2022-08-19T06:52:40;51.17;;;30.23;;
19016;SDS011;9641;51.494;6.670;2022-08-19T06:55:07;43.17;;;29.23;;
19016;SDS011;9641;51.494;6.670;2022-08-19T06:57:34;46.13;;;28.50;;
19016;SDS011;9641;51.494;6.670;2022-08-19T07:00:02;41.27;;;26.80;;
19016;SDS011;9641;51.494;6.670;2022-08-19T07:02:31;48.07;;;30.47;;
19016;SDS011;9641;51.494;6.670;2022-08-19T07:05:03;47.07;;;30.07;;
19016;SDS011;9641;51.494;6.670;2022-08-19T07:07:31;42.20;;;28.13;;
19016;SDS011;9641;51.494;6.670;2022-08-19T07:10:10;43.70;;;29.23;;
19016;SDS011;9641;51.494;6.670;2022-08-19T07:12:37;45.60;;;28.33;;
19016;SDS011;9641;51.494;6.670;2022-08-19T07:15:06;45.37;;;27.83;;
19016;SDS011;9641;51.494;6.670;2022-08-19T07:17:36;38.08;;;24.80;;
19016;SDS011;9641;51.494;6.670;2022-08-19T07:20:04;42.23;;;27.47;;
19016;SDS011;9641;51.494;6.670;2022-08-19T07:22:33;47.60;;;28.20;;
19016;SDS011;9641;51.494;6.670;2022-08-19T07:24:59;44.28;;;26.02;;
19016;SDS011;9641;51.494;6.670;2022-08-19T07:27:28;39.30;;;24.52;;
19016;SDS011;9641;51.494;6.670;2022-08-19T07:29:55;39.03;;;25.23;;
19016;SDS011;9641;51.494;6.670;2022-08-19T07:32:22;33.13;;;22.30;;
19016;SDS011;9641;51.494;6.670;2022-08-19T07:34:52;39.70;;;24.63;;
19016;SDS011;9641;51.494;6.670;2022-08-19T07:37:19;39.17;;;25.48;;
19016;SDS011;9641;51.494;6.670;2022-08-19T07:39:45;42.23;;;25.50;;
19016;SDS011;9641;51.494;6.670;2022-08-19T07:42:13;49.03;;;26.63;;
19016;SDS011;9641;51.494;6.670;2022-08-19T07:44:40;39.15;;;24.88;;
19016;SDS011;9641;51.494;6.670;2022-08-19T07:47:07;36.97;;;23.50;;
19016;SDS011;9641;51.494;6.670;2022-08-19T07:49:34;38.08;;;22.52;;
19016;SDS011;9641;51.494;6.670;2022-08-19T07:52:04;43.20;;;23.10;;
19016;SDS011;9641;51.494;6.670;2022-08-19T07:54:33;38.30;;;20.98;;
19016;SDS011;9641;51.494;6.670;2022-08-19T07:57:02;40.95;;;22.38;;
19016;SDS011;9641;51.494;6.670;2022-08-19T07:59:30;31.70;;;20.30;;
19016;SDS011;9641;51.494;6.670;2022-08-19T08:01:57;35.08;;;19.77;;
19016;SDS011;9641;51.494;6.670;2022-08-19T08:04:25;29.90;;;17.20;;
19016;SDS011;9641;51.494;6.670;2022-08-19T08:07:11;29.77;;;16.60;;
19016;SDS011;9641;51.494;6.670;2022-08-19T08:09:55;27.15;;;15.88;;
19016;SDS011;9641;51.494;6.670;2022-08-19T08:12:23;26.70;;;17.48;;
19016;SDS011;9641;51.494;6.670;2022-08-19T08:14:55;29.08;;;16.67;;
19016;SDS011;9641;51.494;6.670;2022-08-19T08:17:27;28.92;;;17.10;;
19016;SDS011;9641;51.494;6.670;2022-08-19T08:19:55;31.75;;;18.95;;
19016;SDS011;9641;51.494;6.670;2022-08-19T08:22:24;29.48;;;18.35;;
19016;SDS011;9641;51.494;6.670;2022-08-19T08:25:17;29.95;;;17.17;;
19016;SDS011;9641;51.494;6.670;2022-08-19T08:27:45;28.70;;;17.42;;
19016;SDS011;9641;51.494;6.670;2022-08-19T08:30:13;31.77;;;18.38;;
19016;SDS011;9641;51.494;6.670;2022-08-19T08:32:43;33.08;;;18.98;;
19016;SDS011;9641;51.494;6.670;2022-08-19T08:35:10;28.48;;;17.38;;
19016;SDS011;9641;51.494;6.670;2022-08-19T08:37:40;27.40;;;16.48;;
19016;SDS011;9641;51.494;6.670;2022-08-19T08:40:09;31.88;;;19.67;;
19016;SDS011;9641;51.494;6.670;2022-08-19T08:42:45;32.08;;;18.75;;
19016;SDS011;9641;51.494;6.670;2022-08-19T08:45:18;35.00;;;18.67;;
19016;SDS011;9641;51.494;6.670;2022-08-19T08:47:45;35.78;;;20.30;;
19016;SDS011;9641;51.494;6.670;2022-08-19T08:50:18;35.72;;;19.23;;
19016;SDS011;9641;51.494;6.670;2022-08-19T08:52:50;32.38;;;19.27;;
19016;SDS011;9641;51.494;6.670;2022-08-19T08:55:23;34.47;;;19.40;;
19016;SDS011;9641;51.494;6.670;2022-08-19T08:57:53;28.90;;;17.17;;
19016;SDS011;9641;51.494;6.670;2022-08-19T09:00:25;29.38;;;18.00;;
19016;SDS011;9641;51.494;6.670;2022-08-19T09:02:54;27.35;;;16.73;;
19016;SDS011;9641;51.494;6.670;2022-08-19T09:05:23;25.25;;;15.30;;
19016;SDS011;9641;51.494;6.670;2022-08-19T09:08:07;20.45;;;13.63;;
19016;SDS011;9641;51.494;6.670;2022-08-19T09:10:39;20.52;;;13.93;;
19016;SDS011;9641;51.494;6.670;2022-08-19T09:13:11;23.20;;;14.20;;
19016;SDS011;9641;51.494;6.670;2022-08-19T09:15:49;24.48;;;13.73;;
19016;SDS011;9641;51.494;6.670;2022-08-19T09:18:22;25.52;;;16.60;;
19016;SDS011;9641;51.494;6.670;2022-08-19T09:20:49;28.02;;;17.55;;
19016;SDS011;9641;51.494;6.670;2022-08-19T09:23:17;23.90;;;15.27;;
19016;SDS011;9641;51.494;6.670;2022-08-19T09:25:49;26.38;;;16.67;;
19016;SDS011;9641;51.494;6.670;2022-08-19T09:28:16;23.00;;;15.40;;
19016;SDS011;9641;51.494;6.670;2022-08-19T09:30:42;21.00;;;14.23;;
19016;SDS011;9641;51.494;6.670;2022-08-19T09:33:09;21.95;;;13.45;;
19016;SDS011;9641;51.494;6.670;2022-08-19T09:35:37;28.95;;;17.10;;
19016;SDS011;9641;51.494;6.670;2022-08-19T09:38:10;24.60;;;15.55;;
19016;SDS011;9641;51.494;6.670;2022-08-19T09:40:42;27.10;;;17.10;;
19016;SDS011;9641;51.494;6.670;2022-08-19T09:43:08;22.55;;;14.05;;
19016;SDS011;9641;51.494;6.670;2022-08-19T09:45:36;22.70;;;14.32;;
19016;SDS011;9641;51.494;6.670;2022-08-19T09:48:04;25.42;;;15.45;;
19016;SDS011;9641;51.494;6.670;2022-08-19T09:50:31;24.58;;;16.63;;
19016;SDS011;9641;51.494;6.670;2022-08-19T09:53:00;20.38;;;13.77;;
19016;SDS011;9641;51.494;6.670;2022-08-19T09:55:26;28.83;;;16.65;;
19016;SDS011;9641;51.494;6.670;2022-08-19T09:57:55;20.95;;;14.52;;
19016;SDS011;9641;51.494;6.670;2022-08-19T10:00:21;24.63;;;15.45;;
19016;SDS011;9641;51.494;6.670;2022-08-19T10:02:48;20.02;;;12.60;;
19016;SDS011;9641;51.494;6.670;2022-08-19T10:05:15;22.85;;;14.48;;
19016;SDS011;9641;51.494;6.670;2022-08-19T10:07:59;22.88;;;14.93;;
19016;SDS011;9641;51.494;6.670;2022-08-19T10:10:26;21.90;;;14.07;;
19016;SDS011;9641;51.494;6.670;2022-08-19T10:12:55;22.50;;;13.70;;
19016;SDS011;9641;51.494;6.670;2022-08-19T10:15:21;21.13;;;14.27;;
19016;SDS011;9641;51.494;6.670;2022-08-19T10:17:48;26.50;;;14.90;;
19016;SDS011;9641;51.494;6.670;2022-08-19T10:20:15;29.55;;;16.38;;
19016;SDS011;9641;51.494;6.670;2022-08-19T10:22:42;29.90;;;17.58;;
19016;SDS011;9641;51.494;6.670;2022-08-19T10:25:09;27.50;;;16.90;;
19016;SDS011;9641;51.494;6.670;2022-08-19T10:27:37;26.40;;;16.10;;
19016;SDS011;9641;51.494;6.670;2022-08-19T10:30:06;20.90;;;15.15;;
19016;SDS011;9641;51.494;6.670;2022-08-19T10:32:34;20.15;;;12.93;;
19016;SDS011;9641;51.494;6.670;2022-08-19T10:35:01;18.17;;;13.52;;
19016;SDS011;9641;51.494;6.670;2022-08-19T10:37:29;25.15;;;15.27;;
19016;SDS011;9641;51.494;6.670;2022-08-19T10:39:55;23.30;;;15.45;;
19016;SDS011;9641;51.494;6.670;2022-08-19T10:42:22;22.13;;;14.38;;
19016;SDS011;9641;51.494;6.670;2022-08-19T10:44:49;23.77;;;15.00;;
19016;SDS011;9641;51.494;6.670;2022-08-19T10:47:17;20.52;;;13.35;;
19016;SDS011;9641;51.494;6.670;2022-08-19T10:49:45;24.15;;;13.82;;
19016;SDS011;9641;51.494;6.670;2022-08-19T10:52:32;20.58;;;13.43;;
19016;SDS011;9641;51.494;6.670;2022-08-19T10:55:02;16.30;;;10.38;;
19016;SDS011;9641;51.494;6.670;2022-08-19T10:57:48;15.93;;;11.02;;
19016;SDS011;9641;51.494;6.670;2022-08-19T11:00:15;16.75;;;11.02;;
19016;SDS011;9641;51.494;6.670;2022-08-19T11:02:44;14.63;;;9.05;;
19016;SDS011;9641;51.494;6.670;2022-08-19T11:05:11;18.13;;;10.68;;
19016;SDS011;9641;51.494;6.670;2022-08-19T11:07:39;19.23;;;11.05;;
19016;SDS011;9641;51.494;6.670;2022-08-19T11:10:07;13.23;;;9.43;;
19016;SDS011;9641;51.494;6.670;2022-08-19T11:12:36;13.20;;;9.05;;
19016;SDS011;9641;51.494;6.670;2022-08-19T11:15:04;12.70;;;9.70;;
19016;SDS011;9641;51.494;6.670;2022-08-19T11:17:36;13.65;;;8.00;;
19016;SDS011;9641;51.494;6.670;2022-08-19T11:20:08;13.02;;;8.68;;
19016;SDS011;9641;51.494;6.670;2022-08-19T11:22:37;9.50;;;7.38;;
19016;SDS011;9641;51.494;6.670;2022-08-19T11:25:05;10.73;;;7.97;;
19016;SDS011;9641;51.494;6.670;2022-08-19T11:27:33;9.85;;;7.35;;
19016;SDS011;9641;51.494;6.670;2022-08-19T11:30:04;14.63;;;8.27;;
19016;SDS011;9641;51.494;6.670;2022-08-19T11:32:32;10.10;;;7.78;;
19016;SDS011;9641;51.494;6.670;2022-08-19T11:34:59;13.68;;;9.57;;
19016;SDS011;9641;51.494;6.670;2022-08-19T11:37:28;13.98;;;8.18;;
19016;SDS011;9641;51.494;6.670;2022-08-19T11:39:54;10.10;;;7.20;;
19016;SDS011;9641;51.494;6.670;2022-08-19T11:42:21;10.25;;;7.13;;
19016;SDS011;9641;51.494;6.670;2022-08-19T11:45:05;8.43;;;6.40;;
19016;SDS011;9641;51.494;6.670;2022-08-19T11:47:34;7.72;;;5.78;;
19016;SDS011;9641;51.494;6.670;2022-08-19T11:50:01;7.63;;;4.70;;
19016;SDS011;9641;51.494;6.670;2022-08-19T11:52:30;6.85;;;5.57;;
19016;SDS011;9641;51.494;6.670;2022-08-19T11:54:57;5.50;;;4.50;;
19016;SDS011;9641;51.494;6.670;2022-08-19T11:57:24;8.27;;;5.38;;
19016;SDS011;9641;51.494;6.670;2022-08-19T11:59:52;7.97;;;5.97;;
19016;SDS011;9641;51.494;6.670;2022-08-19T12:02:19;7.50;;;4.95;;
19016;SDS011;9641;51.494;6.670;2022-08-19T12:04:46;5.35;;;4.85;;
19016;SDS011;9641;51.494;6.670;2022-08-19T12:07:13;6.10;;;5.10;;
19016;SDS011;9641;51.494;6.670;2022-08-19T12:09:42;7.65;;;4.15;;
19016;SDS011;9641;51.494;6.670;2022-08-19T12:12:09;8.73;;;4.43;;
19016;SDS011;9641;51.494;6.670;2022-08-19T12:14:36;4.15;;;3.53;;
19016;SDS011;9641;51.494;6.670;2022-08-19T12:17:02;4.93;;;3.85;;
19016;SDS011;9641;51.494;6.670;2022-08-19T12:19:32;7.45;;;4.18;;
19016;SDS011;9641;51.494;6.670;2022-08-19T12:22:00;3.03;;;2.83;;
19016;SDS011;9641;51.494;6.670;2022-08-19T12:24:30;3.50;;;3.20;;
19016;SDS011;9641;51.494;6.670;2022-08-19T12:26:59;4.28;;;3.50;;
19016;SDS011;9641;51.494;6.670;2022-08-19T12:29:27;4.72;;;2.83;;
19016;SDS011;9641;51.494;6.670;2022-08-19T12:31:54;4.82;;;3.47;;
19016;SDS011;9641;51.494;6.670;2022-08-19T12:34:25;6.80;;;3.63;;
19016;SDS011;9641;51.494;6.670;2022-08-19T12:36:54;4.22;;;2.92;;
19016;SDS011;9641;51.494;6.670;2022-08-19T12:39:21;5.97;;;3.70;;
19016;SDS011;9641;51.494;6.670;2022-08-19T12:41:48;5.10;;;4.32;;
19016;SDS011;9641;51.494;6.670;2022-08-19T12:44:16;5.40;;;3.30;;
19016;SDS011;9641;51.494;6.670;2022-08-19T12:46:43;3.80;;;2.97;;
19016;SDS011;9641;51.494;6.670;2022-08-19T12:49:10;4.03;;;3.63;;
19016;SDS011;9641;51.494;6.670;2022-08-19T12:51:37;4.60;;;3.45;;
19016;SDS011;9641;51.494;6.670;2022-08-19T12:54:04;3.45;;;3.05;;
19016;SDS011;9641;51.494;6.670;2022-08-19T12:56:31;5.80;;;3.40;;
19016;SDS011;9641;51.494;6.670;2022-08-19T12:59:00;4.28;;;3.40;;
19016;SDS011;9641;51.494;6.670;2022-08-19T13:01:28;3.58;;;3.28;;
19016;SDS011;9641;51.494;6.670;2022-08-19T13:03:57;4.00;;;3.38;;
19016;SDS011;9641;51.494;6.670;2022-08-19T13:06:24;4.85;;;3.28;;
19016;SDS011;9641;51.494;6.670;2022-08-19T13:08:51;3.17;;;2.90;;
19016;SDS011;9641;51.494;6.670;2022-08-19T13:11:19;3.58;;;3.25;;
19016;SDS011;9641;51.494;6.670;2022-08-19T13:13:50;3.97;;;3.58;;
19016;SDS011;9641;51.494;6.670;2022-08-19T13:16:18;7.38;;;3.58;;
19016;SDS011;9641;51.494;6.670;2022-08-19T13:18:48;3.45;;;3.15;;
19016;SDS011;9641;51.494;6.670;2022-08-19T13:21:17;3.42;;;3.13;;
19016;SDS011;9641;51.494;6.670;2022-08-19T13:23:47;4.35;;;3.80;;
19016;SDS011;9641;51.494;6.670;2022-08-19T13:26:14;3.28;;;2.92;;
19016;SDS011;9641;51.494;6.670;2022-08-19T13:28:42;3.92;;;3.30;;
19016;SDS011;9641;51.494;6.670;2022-08-19T13:31:29;3.58;;;3.28;;
19016;SDS011;9641;51.494;6.670;2022-08-19T13:34:16;5.43;;;4.07;;
19016;SDS011;9641;51.494;6.670;2022-08-19T13:36:44;4.20;;;3.80;;
19016;SDS011;9641;51.494;6.670;2022-08-19T13:39:12;6.80;;;4.38;;
19016;SDS011;9641;51.494;6.670;2022-08-19T13:41:43;5.78;;;5.25;;
19016;SDS011;9641;51.494;6.670;2022-08-19T13:44:13;5.78;;;5.03;;
19016;SDS011;9641;51.494;6.670;2022-08-19T13:46:39;4.93;;;4.30;;
19016;SDS011;9641;51.494;6.670;2022-08-19T13:49:09;6.65;;;5.30;;
19016;SDS011;9641;51.494;6.670;2022-08-19T13:51:38;5.20;;;4.70;;
19016;SDS011;9641;51.494;6.670;2022-08-19T13:54:05;5.75;;;4.85;;
19016;SDS011;9641;51.494;6.670;2022-08-19T13:56:33;5.28;;;4.72;;
19016;SDS011;9641;51.494;6.670;2022-08-19T13:59:00;5.50;;;4.45;;
19016;SDS011;9641;51.494;6.670;2022-08-19T14:01:27;4.45;;;4.05;;
19016;SDS011;9641;51.494;6.670;2022-08-19T14:03:55;4.80;;;4.40;;
19016;SDS011;9641;51.494;6.670;2022-08-19T14:06:22;4.03;;;3.63;;
19016;SDS011;9641;51.494;6.670;2022-08-19T14:08:51;4.80;;;3.58;;
19016;SDS011;9641;51.494;6.670;2022-08-19T14:11:18;7.85;;;3.08;;
19016;SDS011;9641;51.494;6.670;2022-08-19T14:13:48;3.55;;;3.25;;
19016;SDS011;9641;51.494;6.670;2022-08-19T14:16:14;4.70;;;3.03;;
19016;SDS011;9641;51.494;6.670;2022-08-19T14:18:42;6.32;;;3.45;;
19016;SDS011;9641;51.494;6.670;2022-08-19T14:21:14;6.30;;;2.97;;
19016;SDS011;9641;51.494;6.670;2022-08-19T14:23:42;3.92;;;2.90;;
19016;SDS011;9641;51.494;6.670;2022-08-19T14:26:11;3.17;;;2.70;;
19016;SDS011;9641;51.494;6.670;2022-08-19T14:28:40;2.63;;;2.38;;
19016;SDS011;9641;51.494;6.670;2022-08-19T14:31:07;3.95;;;3.22;;
19016;SDS011;9641;51.494;6.670;2022-08-19T14:33:34;5.55;;;2.90;;
19016;SDS011;9641;51.494;6.670;2022-08-19T14:36:01;4.35;;;3.17;;
19016;SDS011;9641;51.494;6.670;2022-08-19T14:38:28;4.65;;;4.07;;
19016;SDS011;9641;51.494;6.670;2022-08-19T14:41:04;3.85;;;3.28;;
19016;SDS011;9641;51.494;6.670;2022-08-19T14:43:34;5.60;;;4.25;;
19016;SDS011;9641;51.494;6.670;2022-08-19T14:46:00;5.30;;;4.38;;
19016;SDS011;9641;51.494;6.670;2022-08-19T14:48:27;6.80;;;5.20;;
19016;SDS011;9641;51.494;6.670;2022-08-19T14:50:54;8.20;;;4.90;;
19016;SDS011;9641;51.494;6.670;2022-08-19T14:53:21;6.18;;;4.60;;
19016;SDS011;9641;51.494;6.670;2022-08-19T14:55:49;7.55;;;5.63;;